الصفحة الرئيسية
METAR-TAF:

METAR-TAF

مطار :

Punta Arenas, تشيلي

دائرة عرض: 53-00S, خط طول: 070-51W, ارتفاع: 37 متر

مراقبة الطقس الحالي

تاريخ ووقت الإصدار 57 دقيقة قبل الساعة 04:00UTC
ريح 9 عقدة من الشمال/الشمال الغربي
درجة الحرارة 6°درجة مئوية
الرطوبة 70%
ضغط 1006 hPa
الرؤية 10 كم أو أكثر
الغيوم لا تقل 1500 م ولا وجود لمزنة ركامية السحاب الأسود

METAR: SCCI 240400Z 33009KT CAVOK 06/01 Q1006 NOSIG

زمن: 01:57 (04:57 UTC)

توقعات

تاريخ ووقت الإصدار 6ساعات و 15 دقيقة قبل الساعة 22:42UTC
التوقعات صالحة من24 الساعة 00 UTC إلى 25 الساعة 00 UTC
ريح 15 عقدة من الغرب/الشمال الغربي
الرؤية 10 كم أو أكثر
غيوم قليلة على ارتفاع 3500 قدم
نظرية الاحتمالات 40% :
مؤقت
من 24 الساعة 00 UTC إلى 24 الساعة 03 UTC
ريح 20 عقدة من الغرب/الشمال الغربي تتزايد حتى 30 عقدة
أصبح
من 24 الساعة 05 UTC إلى 24 الساعة 07 UTC
ريح 20 عقدة من الشمال الغربي تتزايد حتى 30 عقدة
أصبح
من 24 الساعة 11 UTC إلى 24 الساعة 13 UTC
غيوم متفرقة على ارتفاع 3000 قدم

TAF: SCCI 232242Z 2400/2500 30015KT 9999 FEW035 TN04/2410Z TX10/2418Z PROB40 TEMPO 2400/2403 30020G30KT BECMG 2405/2407 32020G30KT BECMG 2411/2413 SCT030

أرصاد الطقس والتوقعات من أكثر من 4000 مطار (تقارير الطقس للمطار METAR والتنبؤ بالطقس بالمطارTAF).

المحطات المتاحة هي النقط الصفراء والحمراء على الخريطة.

حرك المؤشر فوق النقطة لمعرفة اسم المحطة.

ثم انقر لمعرفة أرصاد وتوقعات الطقس.

لتغيير الخارطة: اضغط على الأزرار الخضراء مع رمز الصليب الأسود للتكبير. على الزر الأخضر مع شرطة للتصغير، أو على الأسهم الخضراء للخرائط المجاورة.


METAR-TAF: